TAF and METAR

Decoding for American and Canadian METARs and TAFs is not fully implemented.

Could not understand the following METAR

KPSP 280353Z AUTO 22004KT 10SM CLR 20/M10 A3005 RMK AO2 SLP174 T02001100

TAF for Palm Springs International Airport

KPSP 272338Z 2800/2824 VRB04KT P6SM SKC
Report created 28. okt 00:38

between 28. okt 01:00 - 28. okt 01:00

wind 4 knots from various directions
Palm Springs International Airport in United States of America at 135m

Latest 5 airports